Andersonville, Virginia
Current Conditions -  °F | °C
As of 9:55 PM on Friday 21 Nov 2014 (Local Time) from KFVX Reporting Station
Clear Clear  
Wind Chill: 23°   Ceiling: Unl
Heat Index: 23°   Visibility: 10mi
Dew Point: 10°   Wind: 0mph
Humidity: 58%   Direction: NA
Pressure: 30.52"   Gusts: NA
Location:  37.47°N, 78.57°W
Report Text: KFVX 220255Z AUTO 00000KT 10SM CLR M05/M12 A3052 RMK AO2 T10501121
Loading
Personal Weather Stations






























Interactive Weather Map New forecast layout! Learn more

10-Day Weather Forecast

Advertisements
Track Severe Weather on mobile